createdAt,value
2018-06-11T00:00:56.812Z,0
2018-06-11T00:01:59.090Z,0
2018-06-11T00:03:01.479Z,0
2018-06-11T00:04:03.466Z,0
2018-06-11T00:05:05.461Z,0
2018-06-11T00:06:07.474Z,0
2018-06-11T00:07:09.753Z,0
2018-06-11T00:08:11.753Z,0
2018-06-11T00:09:13.754Z,0
2018-06-11T00:10:15.759Z,0
2018-06-11T00:11:18.057Z,0
2018-06-11T00:12:20.030Z,0
2018-06-11T00:13:22.326Z,0
2018-06-11T00:14:24.333Z,0
2018-06-11T00:15:26.336Z,0
2018-06-11T00:16:28.622Z,0
2018-06-11T00:17:30.622Z,0
2018-06-11T00:18:32.620Z,0
2018-06-11T00:19:35.009Z,0
2018-06-11T00:20:37.380Z,0
2018-06-11T00:21:39.388Z,0
2018-06-11T00:22:41.382Z,0
2018-06-11T00:23:43.664Z,0
2018-06-11T00:24:45.956Z,0
2018-06-11T00:25:47.958Z,0
2018-06-11T00:26:49.959Z,0
2018-06-11T00:27:52.249Z,0
2018-06-11T00:28:54.239Z,0
2018-06-11T00:29:56.529Z,0
2018-06-11T00:30:58.521Z,0
2018-06-11T00:32:00.521Z,0
2018-06-11T00:33:02.517Z,0
2018-06-11T00:34:04.520Z,0
2018-06-11T00:35:06.530Z,0
2018-06-11T00:36:08.536Z,0
2018-06-11T00:37:10.526Z,0
2018-06-11T00:38:12.527Z,0
2018-06-11T00:39:14.526Z,0
2018-06-11T00:40:16.536Z,0
2018-06-11T00:41:18.544Z,0
2018-06-11T00:42:20.533Z,0
2018-06-11T00:43:22.539Z,0
2018-06-11T00:44:24.810Z,0
2018-06-11T00:45:26.820Z,0
2018-06-11T00:46:29.099Z,0
2018-06-11T00:47:31.103Z,0
2018-06-11T00:48:33.103Z,0
2018-06-11T00:49:35.097Z,0
2018-06-11T00:50:37.096Z,0
2018-06-11T00:51:39.095Z,0
2018-06-11T00:52:41.088Z,0
2018-06-11T00:53:43.100Z,0
2018-06-11T00:54:45.097Z,0
2018-06-11T00:55:47.095Z,0
2018-06-11T00:56:49.477Z,0
2018-06-11T00:57:51.477Z,0
2018-06-11T00:58:53.862Z,0
2018-06-11T00:59:55.860Z,0
2018-06-11T01:00:58.130Z,0
2018-06-11T01:02:00.120Z,0
2018-06-11T01:03:02.137Z,0
2018-06-11T01:04:04.140Z,0
2018-06-11T01:05:06.130Z,0
2018-06-11T01:06:08.441Z,0
2018-06-11T01:07:10.438Z,0
2018-06-11T01:08:12.430Z,0
2018-06-11T01:09:14.729Z,0
2018-06-11T01:10:16.738Z,0
2018-06-11T01:11:18.748Z,0
2018-06-11T01:12:20.740Z,0
2018-06-11T01:13:23.127Z,0
2018-06-11T01:14:25.123Z,0
2018-06-11T01:15:27.788Z,0
2018-06-11T01:16:30.176Z,0
2018-06-11T01:17:32.450Z,0
2018-06-11T01:18:34.449Z,0
2018-06-11T01:19:36.743Z,0
2018-06-11T01:20:39.025Z,0
2018-06-11T01:21:41.028Z,0
2018-06-11T01:22:43.034Z,0
2018-06-11T01:23:45.036Z,0
2018-06-11T01:24:47.027Z,0
2018-06-11T01:25:49.033Z,0
2018-06-11T01:26:51.606Z,0
2018-06-11T01:27:53.610Z,0
2018-06-11T01:28:55.612Z,0
2018-06-11T01:29:58.000Z,0
2018-06-11T01:31:00.280Z,0
2018-06-11T01:32:02.273Z,0
2018-06-11T01:33:04.265Z,0
2018-06-11T01:34:06.563Z,0
2018-06-11T01:35:08.568Z,0
2018-06-11T01:36:10.554Z,0
2018-06-11T01:37:12.562Z,0
2018-06-11T01:38:14.576Z,0
2018-06-11T01:39:16.571Z,0
2018-06-11T01:40:19.427Z,0
2018-06-11T01:41:21.428Z,0
2018-06-11T01:42:23.426Z,0
2018-06-11T01:43:25.431Z,0
2018-06-11T01:44:27.417Z,0
2018-06-11T01:45:29.706Z,0
2018-06-11T01:46:31.705Z,0
2018-06-11T01:47:33.705Z,0
2018-06-11T01:48:35.705Z,0
2018-06-11T01:49:37.703Z,0
2018-06-11T01:50:39.704Z,0
2018-06-11T01:51:41.972Z,0
2018-06-11T01:52:43.973Z,0
2018-06-11T01:53:45.981Z,0
2018-06-11T01:54:47.973Z,0
2018-06-11T01:55:49.969Z,0
2018-06-11T01:56:51.972Z,0
2018-06-11T01:57:53.978Z,0
2018-06-11T01:58:55.986Z,0
2018-06-11T01:59:57.985Z,0
2018-06-11T02:00:59.984Z,0
2018-06-11T02:02:02.289Z,0
2018-06-11T02:03:04.852Z,0
2018-06-11T02:04:06.850Z,0
2018-06-11T02:05:08.860Z,4
2018-06-11T02:06:11.159Z,4
2018-06-11T02:07:13.142Z,4
2018-06-11T02:08:15.143Z,0
2018-06-11T02:09:17.139Z,4
2018-06-11T02:10:19.134Z,4
2018-06-11T02:11:21.135Z,4
2018-06-11T02:12:23.136Z,8
2018-06-11T02:13:25.136Z,4
2018-06-11T02:14:27.132Z,8
2018-06-11T02:15:29.139Z,8
2018-06-11T02:16:31.121Z,8
2018-06-11T02:17:33.130Z,12
2018-06-11T02:18:35.125Z,8
2018-06-11T02:19:37.413Z,12
2018-06-11T02:20:39.407Z,12
2018-06-11T02:21:41.694Z,12
2018-06-11T02:22:44.085Z,16
2018-06-11T02:23:46.380Z,16
2018-06-11T02:24:48.761Z,20
2018-06-11T02:25:51.057Z,20
2018-06-11T02:26:53.050Z,24
2018-06-11T02:27:55.049Z,28
2018-06-11T02:28:57.429Z,28
2018-06-11T02:29:59.438Z,36
2018-06-11T02:31:01.832Z,40
2018-06-11T02:32:04.483Z,48
2018-06-11T02:33:06.488Z,56
2018-06-11T02:34:08.485Z,64
2018-06-11T02:35:10.862Z,76
2018-06-11T02:36:13.150Z,88
2018-06-11T02:37:15.144Z,104
2018-06-11T02:38:17.708Z,120
2018-06-11T02:39:19.712Z,132
2018-06-11T02:40:21.700Z,148
2018-06-11T02:41:23.724Z,164
2018-06-11T02:42:25.720Z,176
2018-06-11T02:43:27.730Z,188
2018-06-11T02:44:30.029Z,204
2018-06-11T02:45:32.305Z,208
2018-06-11T02:46:34.584Z,208
2018-06-11T02:47:37.254Z,208
2018-06-11T02:48:39.529Z,212
2018-06-11T02:49:41.540Z,220
2018-06-11T02:50:43.534Z,232
2018-06-11T02:51:45.840Z,244
2018-06-11T02:52:47.826Z,264
2018-06-11T02:53:50.117Z,280
2018-06-11T02:54:52.120Z,288
2018-06-11T02:55:54.111Z,312
2018-06-11T02:56:56.117Z,348
2018-06-11T02:57:58.394Z,380
2018-06-11T02:59:00.384Z,404
2018-06-11T03:00:02.385Z,436
2018-06-11T03:01:05.050Z,464
2018-06-11T03:02:07.052Z,504
2018-06-11T03:03:09.060Z,536
2018-06-11T03:04:11.446Z,560
2018-06-11T03:05:13.451Z,568
2018-06-11T03:06:15.720Z,604
2018-06-11T03:07:18.004Z,628
2018-06-11T03:08:20.032Z,652
2018-06-11T03:09:22.028Z,680
2018-06-11T03:10:24.315Z,704
2018-06-11T03:11:26.315Z,728
2018-06-11T03:12:28.314Z,748
2018-06-11T03:13:30.297Z,744
2018-06-11T03:14:32.296Z,748
2018-06-11T03:15:34.320Z,776
2018-06-11T03:16:36.284Z,824
2018-06-11T03:17:38.566Z,860
2018-06-11T03:18:40.564Z,888
2018-06-11T03:19:42.565Z,924
2018-06-11T03:20:44.564Z,952
2018-06-11T03:21:46.559Z,936
2018-06-11T03:22:48.563Z,840
2018-06-11T03:23:50.561Z,756
2018-06-11T03:24:52.554Z,748
2018-06-11T03:25:54.553Z,764
2018-06-11T03:26:56.832Z,808
2018-06-11T03:27:58.835Z,828
2018-06-11T03:29:00.836Z,872
2018-06-11T03:30:03.110Z,904
2018-06-11T03:31:05.120Z,912
2018-06-11T03:32:07.119Z,936
2018-06-11T03:33:10.085Z,1068
2018-06-11T03:34:12.079Z,1168
2018-06-11T03:35:14.072Z,1288
2018-06-11T03:36:16.077Z,1420
2018-06-11T03:37:18.078Z,1624
2018-06-11T03:38:20.065Z,1876
2018-06-11T03:39:22.356Z,2004
2018-06-11T03:40:24.342Z,2024
2018-06-11T03:41:26.345Z,2016
2018-06-11T03:42:28.646Z,2036
2018-06-11T03:43:30.675Z,2072
2018-06-11T03:44:32.668Z,2116
2018-06-11T03:45:34.951Z,2196
2018-06-11T03:46:36.938Z,2272
2018-06-11T03:47:38.948Z,2348
2018-06-11T03:48:40.947Z,2424
2018-06-11T03:49:42.949Z,2488
2018-06-11T03:50:44.948Z,2544
2018-06-11T03:51:46.940Z,2604
2018-06-11T03:52:48.993Z,2708
2018-06-11T03:53:51.284Z,2796
2018-06-11T03:54:53.283Z,2768
2018-06-11T03:55:55.293Z,2704
2018-06-11T03:56:57.287Z,2648
2018-06-11T03:57:59.296Z,2632
2018-06-11T03:59:01.853Z,2600
2018-06-11T04:00:03.858Z,2588
2018-06-11T04:01:06.155Z,2604
2018-06-11T04:02:08.143Z,2628
2018-06-11T04:03:10.154Z,2664
2018-06-11T04:04:12.148Z,2696
2018-06-11T04:05:14.137Z,2716
2018-06-11T04:06:16.136Z,2740
2018-06-11T04:07:18.418Z,2768
2018-06-11T04:08:20.415Z,2812
2018-06-11T04:09:22.408Z,2872
2018-06-11T04:10:24.398Z,2992
2018-06-11T04:11:26.404Z,3132
2018-06-11T04:12:28.688Z,3240
2018-06-11T04:13:30.699Z,3388
2018-06-11T04:14:32.682Z,3656
2018-06-11T04:15:34.679Z,3812
2018-06-11T04:16:36.672Z,4032
2018-06-11T04:17:39.059Z,4044
2018-06-11T04:18:41.068Z,3784
2018-06-11T04:19:43.358Z,3604
2018-06-11T04:20:45.365Z,3528
2018-06-11T04:21:47.661Z,3492
2018-06-11T04:22:49.661Z,3472
2018-06-11T04:23:51.659Z,3396
2018-06-11T04:24:53.964Z,3372
2018-06-11T04:25:55.965Z,3404
2018-06-11T04:26:57.966Z,3444
2018-06-11T04:28:00.342Z,3476
2018-06-11T04:29:02.652Z,3500
2018-06-11T04:30:04.657Z,3532
2018-06-11T04:31:06.647Z,3560
2018-06-11T04:32:08.697Z,3604
2018-06-11T04:33:11.268Z,3644
2018-06-11T04:34:13.378Z,3712
2018-06-11T04:35:15.377Z,3880
2018-06-11T04:36:17.382Z,4060
2018-06-11T04:37:19.394Z,4320
2018-06-11T04:38:21.675Z,4780
2018-06-11T04:39:23.673Z,5168
2018-06-11T04:40:25.676Z,5592
2018-06-11T04:41:27.957Z,5680
2018-06-11T04:42:30.418Z,5800
2018-06-11T04:43:32.718Z,6052
2018-06-11T04:44:35.060Z,6008
2018-06-11T04:45:37.351Z,6152
2018-06-11T04:46:39.831Z,6440
2018-06-11T04:47:41.839Z,6896
2018-06-11T04:48:43.847Z,6920
2018-06-11T04:49:46.584Z,6408
2018-06-11T04:50:48.590Z,6056
2018-06-11T04:51:50.677Z,6360
2018-06-11T04:52:52.664Z,7196
2018-06-11T04:53:54.672Z,7516
2018-06-11T04:54:56.689Z,7376
2018-06-11T04:55:58.959Z,7596
2018-06-11T04:57:00.958Z,7444
2018-06-11T04:58:03.345Z,7020
2018-06-11T04:59:05.355Z,6880
2018-06-11T05:00:07.739Z,7316
2018-06-11T05:01:10.010Z,7880
2018-06-11T05:02:12.296Z,7932
2018-06-11T05:03:14.283Z,6656
2018-06-11T05:04:16.295Z,6280
2018-06-11T05:05:18.294Z,6336
2018-06-11T05:06:20.296Z,7136
2018-06-11T05:07:22.296Z,8256
2018-06-11T05:08:24.286Z,8988
2018-06-11T05:09:26.284Z,8584
2018-06-11T05:10:28.288Z,8208
2018-06-11T05:11:30.554Z,7812
2018-06-11T05:12:32.571Z,7108
2018-06-11T05:13:34.848Z,6652
2018-06-11T05:14:36.851Z,7952
2018-06-11T05:15:38.846Z,9624
2018-06-11T05:16:40.847Z,9480
2018-06-11T05:17:43.130Z,8512
2018-06-11T05:18:45.116Z,8148
2018-06-11T05:19:47.117Z,8468
2018-06-11T05:20:49.117Z,9072
2018-06-11T05:21:51.107Z,9744
2018-06-11T05:22:53.099Z,9232
2018-06-11T05:23:55.103Z,8504
2018-06-11T05:24:57.489Z,8140
2018-06-11T05:26:00.163Z,8868
2018-06-11T05:27:02.837Z,9992
2018-06-11T05:28:05.489Z,11268
2018-06-11T05:29:07.488Z,10976
2018-06-11T05:30:09.493Z,9644
2018-06-11T05:31:11.486Z,9628
2018-06-11T05:32:13.494Z,10504
2018-06-11T05:33:15.500Z,10716
2018-06-11T05:34:17.496Z,10612
2018-06-11T05:35:19.783Z,10620
2018-06-11T05:36:21.770Z,10800
2018-06-11T05:37:23.775Z,11280
2018-06-11T05:38:26.162Z,11356
2018-06-11T05:39:28.165Z,11736
2018-06-11T05:40:30.216Z,12176
2018-06-11T05:41:32.164Z,12244
2018-06-11T05:42:34.435Z,12248
2018-06-11T05:43:36.446Z,12520
2018-06-11T05:44:38.477Z,12516
2018-06-11T05:45:40.442Z,12064
2018-06-11T05:46:42.715Z,12040
2018-06-11T05:47:44.706Z,12760
2018-06-11T05:48:46.709Z,12936
2018-06-11T05:49:48.720Z,12804
2018-06-11T05:50:50.716Z,12856
2018-06-11T05:51:52.727Z,12564
2018-06-11T05:52:54.721Z,12392
2018-06-11T05:53:57.007Z,12484
2018-06-11T05:54:59.569Z,12456
2018-06-11T05:56:01.596Z,12448
2018-06-11T05:57:03.886Z,12528
2018-06-11T05:58:05.890Z,12636
2018-06-11T05:59:07.872Z,11824
2018-06-11T06:00:09.872Z,11048
2018-06-11T06:01:11.873Z,10496
2018-06-11T06:02:13.882Z,9572
2018-06-11T06:03:15.879Z,8820
2018-06-11T06:04:17.881Z,8544
2018-06-11T06:05:19.883Z,8376
2018-06-11T06:06:21.879Z,8280
2018-06-11T06:07:23.882Z,8368
2018-06-11T06:08:25.864Z,8552
2018-06-11T06:09:27.878Z,8464
2018-06-11T06:10:30.152Z,8068
2018-06-11T06:11:32.538Z,7932
2018-06-11T06:12:34.531Z,7980
2018-06-11T06:13:36.535Z,8376
2018-06-11T06:14:39.106Z,8520
2018-06-11T06:15:41.684Z,8320
2018-06-11T06:16:43.683Z,8128
2018-06-11T06:17:46.021Z,7980
2018-06-11T06:18:48.008Z,6900
2018-06-11T06:19:50.009Z,6648
2018-06-11T06:20:52.010Z,7952
2018-06-11T06:21:54.291Z,8496
2018-06-11T06:22:56.585Z,8892
2018-06-11T06:23:58.556Z,9144
2018-06-11T06:25:00.564Z,9192
2018-06-11T06:26:03.163Z,9016
2018-06-11T06:27:05.157Z,9440
2018-06-11T06:28:07.547Z,9652
2018-06-11T06:29:09.540Z,9828
2018-06-11T06:30:11.546Z,9928
2018-06-11T06:31:13.538Z,10256
2018-06-11T06:32:15.551Z,10760
2018-06-11T06:33:17.933Z,10768
2018-06-11T06:34:19.953Z,10652
2018-06-11T06:35:22.313Z,10900
2018-06-11T06:36:24.697Z,11200
2018-06-11T06:37:26.697Z,11120
2018-06-11T06:38:28.692Z,11048
2018-06-11T06:39:30.969Z,11056
2018-06-11T06:40:33.279Z,10708
2018-06-11T06:41:36.144Z,10264
2018-06-11T06:42:38.141Z,11208
2018-06-11T06:43:40.136Z,12348
2018-06-11T06:44:42.422Z,12968
2018-06-11T06:45:44.431Z,12812
2018-06-11T06:46:46.435Z,12108
2018-06-11T06:47:48.429Z,11888
2018-06-11T06:48:50.432Z,12092
2018-06-11T06:49:52.725Z,12068
2018-06-11T06:50:54.730Z,13100
2018-06-11T06:51:56.745Z,13584
2018-06-11T06:52:59.705Z,13992
2018-06-11T06:54:01.732Z,13976
2018-06-11T06:55:03.744Z,13408
2018-06-11T06:56:05.733Z,13296
2018-06-11T06:57:07.797Z,13204
2018-06-11T06:58:09.820Z,12948
2018-06-11T06:59:11.833Z,14020
2018-06-11T07:00:14.189Z,15164
2018-06-11T07:01:16.505Z,16500
2018-06-11T07:02:18.515Z,16364
2018-06-11T07:03:20.548Z,14000
2018-06-11T07:04:22.563Z,12172
2018-06-11T07:05:24.576Z,13532
2018-06-11T07:06:26.588Z,15616
2018-06-11T07:07:28.688Z,16316
2018-06-11T07:08:30.685Z,15940
2018-06-11T07:09:32.732Z,15512
2018-06-11T07:10:34.740Z,16192
2018-06-11T07:11:37.036Z,17676
2018-06-11T07:12:39.135Z,19616
2018-06-11T07:13:41.164Z,21472
2018-06-11T07:14:43.340Z,21792
2018-06-11T07:15:45.357Z,20480
2018-06-11T07:16:47.383Z,19584
2018-06-11T07:17:49.460Z,18176
2018-06-11T07:18:51.840Z,16560
2018-06-11T07:19:53.840Z,15460
2018-06-11T07:20:56.073Z,14936
2018-06-11T07:21:58.153Z,14164
2018-06-11T07:23:00.160Z,13200
2018-06-11T07:24:02.173Z,12456
2018-06-11T07:25:04.178Z,12248
2018-06-11T07:26:06.174Z,12480
2018-06-11T07:27:08.636Z,13168
2018-06-11T07:28:10.973Z,14076
2018-06-11T07:29:12.987Z,14872
2018-06-11T07:30:15.260Z,15212
2018-06-11T07:31:17.278Z,15380
2018-06-11T07:32:19.262Z,16540
2018-06-11T07:33:21.280Z,18092
2018-06-11T07:34:23.280Z,19584
2018-06-11T07:35:25.281Z,20864
2018-06-11T07:36:27.283Z,20864
2018-06-11T07:37:29.577Z,19776
2018-06-11T07:38:31.573Z,18144
2018-06-11T07:39:33.586Z,15488
2018-06-11T07:40:35.876Z,13968
2018-06-11T07:41:38.267Z,13180
2018-06-11T07:42:40.661Z,12332
2018-06-11T07:43:42.662Z,11788
2018-06-11T07:44:44.669Z,12344
2018-06-11T07:45:46.951Z,13484
2018-06-11T07:46:48.948Z,14252
2018-06-11T07:47:50.965Z,14544
2018-06-11T07:48:52.960Z,15696
2018-06-11T07:49:54.969Z,17472
2018-06-11T07:50:56.969Z,19456
2018-06-11T07:51:58.966Z,20384
2018-06-11T07:53:00.961Z,21280
2018-06-11T07:54:02.963Z,23104
2018-06-11T07:55:04.959Z,25280
2018-06-11T07:56:06.965Z,25824
2018-06-11T07:57:08.966Z,25504
2018-06-11T07:58:10.976Z,25856
2018-06-11T07:59:13.258Z,26752
2018-06-11T08:00:15.264Z,26592
2018-06-11T08:01:17.724Z,26336
2018-06-11T08:02:19.687Z,25824
2018-06-11T08:03:22.077Z,26272
2018-06-11T08:04:24.074Z,27072
2018-06-11T08:05:26.079Z,27520
2018-06-11T08:06:28.078Z,28672
2018-06-11T08:07:30.077Z,29344
2018-06-11T08:08:32.079Z,30400
2018-06-11T08:09:34.071Z,30304
2018-06-11T08:10:36.070Z,29056
2018-06-11T08:11:38.092Z,27872
2018-06-11T08:12:40.470Z,28448
2018-06-11T08:13:42.506Z,30592
2018-06-11T08:14:44.870Z,33632
2018-06-11T08:15:46.870Z,34848
2018-06-11T08:16:49.159Z,34208
2018-06-11T08:17:51.161Z,31232
2018-06-11T08:18:53.445Z,28608
2018-06-11T08:19:55.454Z,26368
2018-06-11T08:20:57.726Z,25120
2018-06-11T08:22:00.022Z,25600
2018-06-11T08:23:02.302Z,27232
2018-06-11T08:24:04.305Z,29056
2018-06-11T08:25:06.308Z,27904
2018-06-11T08:26:08.308Z,28384
2018-06-11T08:27:10.316Z,32192
2018-06-11T08:28:12.316Z,32000
2018-06-11T08:29:14.315Z,30720
2018-06-11T08:30:16.328Z,31008
2018-06-11T08:31:18.325Z,32224
2018-06-11T08:32:20.326Z,34784
2018-06-11T08:33:22.620Z,35744
2018-06-11T08:34:24.630Z,35104
2018-06-11T08:35:27.018Z,34592
2018-06-11T08:36:29.031Z,36832
2018-06-11T08:37:31.032Z,30880
2018-06-11T08:38:33.419Z,30336
2018-06-11T08:39:35.427Z,30784
2018-06-11T08:40:37.424Z,32032
2018-06-11T08:41:39.425Z,37504
2018-06-11T08:42:41.438Z,33920
2018-06-11T08:43:43.437Z,34816
2018-06-11T08:44:45.434Z,33984
2018-06-11T08:45:47.432Z,32992
2018-06-11T08:46:49.435Z,88064
2018-06-11T08:47:51.712Z,38112
2018-06-11T08:48:54.098Z,108000
2018-06-11T08:49:56.387Z,34368
2018-06-11T08:50:58.384Z,28960
2018-06-11T08:52:00.388Z,27104
2018-06-11T08:53:02.393Z,27296
2018-06-11T08:54:04.401Z,28096
2018-06-11T08:55:06.408Z,32224
2018-06-11T08:56:08.409Z,34048
2018-06-11T08:57:10.415Z,120672
2018-06-11T08:58:12.422Z,58688
2018-06-11T08:59:14.421Z,100608
2018-06-11T09:00:16.708Z,33600
2018-06-11T09:01:19.017Z,35552
2018-06-11T09:02:21.394Z,41152
2018-06-11T09:03:23.784Z,37472
2018-06-11T09:04:25.787Z,32256
2018-06-11T09:05:27.794Z,31008
2018-06-11T09:06:29.802Z,35488
2018-06-11T09:07:31.797Z,28896
2018-06-11T09:08:33.795Z,27808
2018-06-11T09:09:35.799Z,27680
2018-06-11T09:10:37.810Z,28576
2018-06-11T09:11:40.096Z,77568
2018-06-11T09:14:42.177Z,107616
2018-06-11T09:15:44.187Z,105312
2018-06-11T09:16:46.570Z,114656
2018-06-11T09:17:48.575Z,121248
2018-06-11T09:18:50.571Z,92992
2018-06-11T09:19:52.583Z,43360
2018-06-11T09:20:54.583Z,40800
2018-06-11T09:21:56.593Z,67648
2018-06-11T09:22:58.594Z,35872
2018-06-11T09:24:00.602Z,33824
2018-06-11T09:25:02.672Z,36032
2018-06-11T09:26:04.977Z,40352
2018-06-11T09:27:07.269Z,38528
2018-06-11T09:28:09.284Z,36288
2018-06-11T09:29:11.284Z,32928
2018-06-11T09:30:13.876Z,33088
2018-06-11T09:31:16.259Z,43488
2018-06-11T09:32:18.268Z,31776
2018-06-11T09:33:20.280Z,30272
2018-06-11T09:34:22.284Z,28416
2018-06-11T09:35:24.681Z,29344
2018-06-11T09:36:26.684Z,28512
2018-06-11T09:37:28.690Z,30624
2018-06-11T09:38:30.687Z,117856
2018-06-11T09:39:33.102Z,117312
2018-06-11T09:40:35.113Z,51968
2018-06-11T09:41:37.112Z,61824
2018-06-11T09:42:39.408Z,39264
2018-06-11T09:43:41.459Z,36224
2018-06-11T09:44:43.413Z,38656
2018-06-11T09:45:45.421Z,43648
2018-06-11T09:46:47.710Z,44928
2018-06-11T09:47:50.014Z,41344
2018-06-11T09:48:52.013Z,39968
2018-06-11T09:49:54.300Z,40640
2018-06-11T09:50:56.587Z,36864
2018-06-11T09:51:59.276Z,41568
2018-06-11T09:53:01.291Z,41184
2018-06-11T09:54:03.565Z,146848
2018-06-11T09:55:05.573Z,35392
2018-06-11T09:56:07.861Z,30240
2018-06-11T09:57:09.864Z,28704
2018-06-11T09:58:11.876Z,28000
2018-06-11T09:59:13.883Z,27072
2018-06-11T10:00:15.888Z,28224
2018-06-11T10:01:17.881Z,23872
2018-06-11T10:02:20.169Z,24960
2018-06-11T10:03:22.186Z,32832
2018-06-11T10:04:24.472Z,37280
2018-06-11T10:05:26.762Z,138816
2018-06-11T10:06:28.768Z,151712
2018-06-11T10:07:30.773Z,33952
2018-06-11T10:08:32.783Z,40128
2018-06-11T10:09:34.799Z,40192
2018-06-11T10:10:37.093Z,36192
2018-06-11T10:11:39.767Z,124640
2018-06-11T10:12:41.764Z,112608
2018-06-11T10:13:43.790Z,126560
2018-06-11T10:14:45.769Z,146432
2018-06-11T10:15:47.786Z,119104
2018-06-11T10:16:49.788Z,140352
2018-06-11T10:17:52.482Z,31520
2018-06-11T10:18:54.479Z,28576
2018-06-11T10:19:56.866Z,29568
2018-06-11T10:20:58.874Z,146752
2018-06-11T10:22:00.879Z,132224
2018-06-11T10:23:02.899Z,133120
2018-06-11T10:24:05.243Z,128160
2018-06-11T10:25:07.478Z,131488
2018-06-11T10:26:09.875Z,144352
2018-06-11T10:27:11.892Z,59136
2018-06-11T10:28:13.899Z,58112
2018-06-11T10:29:16.184Z,42784
2018-06-11T10:30:18.194Z,71360
2018-06-11T10:31:20.190Z,128352
2018-06-11T10:32:22.615Z,41312
2018-06-11T10:33:24.649Z,37120
2018-06-11T10:34:26.706Z,30144
2018-06-11T10:35:29.048Z,31040
2018-06-11T10:36:31.098Z,35648
2018-06-11T10:37:33.149Z,48480
2018-06-11T10:38:35.201Z,44896
2018-06-11T10:39:37.244Z,44800
2018-06-11T10:40:39.301Z,48832
2018-06-11T10:41:41.400Z,128864
2018-06-11T10:42:43.845Z,139360
2018-06-11T10:43:45.948Z,140352
2018-06-11T10:44:48.016Z,92448
2018-06-11T10:45:50.093Z,132160
2018-06-11T10:46:52.147Z,127136
2018-06-11T10:47:54.609Z,122176
2018-06-11T10:48:56.922Z,124800
2018-06-11T10:49:58.978Z,131712
2018-06-11T10:51:01.027Z,144288
2018-06-11T10:52:03.072Z,144672
2018-06-11T10:53:05.128Z,99296
2018-06-11T10:54:07.182Z,140384
2018-06-11T10:55:09.623Z,29248
2018-06-11T10:56:11.673Z,33504
2018-06-11T10:57:14.038Z,42656
2018-06-11T10:58:16.345Z,98592
2018-06-11T10:59:18.630Z,95328
2018-06-11T11:00:20.638Z,122752
2018-06-11T11:01:22.644Z,38976
2018-06-11T11:02:24.658Z,41120
2018-06-11T11:03:26.672Z,60960
2018-06-11T11:04:29.096Z,31648
2018-06-11T11:05:31.067Z,32512
2018-06-11T11:06:33.363Z,31808
2018-06-11T11:07:35.366Z,150112
2018-06-11T11:08:37.385Z,150080
2018-06-11T11:09:39.382Z,153504
2018-06-11T11:10:41.392Z,156224
2018-06-11T11:11:43.403Z,44576
2018-06-11T11:12:45.654Z,32544
2018-06-11T11:13:47.845Z,36512
2018-06-11T11:14:49.863Z,34400
2018-06-11T11:15:51.872Z,124992
2018-06-11T11:16:53.881Z,43904
2018-06-11T11:17:55.891Z,155168
2018-06-11T11:18:57.897Z,164128
2018-06-11T11:19:59.904Z,27616
2018-06-11T11:21:02.198Z,31200
2018-06-11T11:22:04.206Z,37664
2018-06-11T11:23:06.524Z,143264
2018-06-11T11:24:08.528Z,149856
2018-06-11T11:25:10.928Z,146944
2018-06-11T11:26:13.071Z,127360
2018-06-11T11:27:15.895Z,166272
2018-06-11T11:28:17.911Z,35328
2018-06-11T11:29:20.190Z,31008
2018-06-11T11:30:22.190Z,38112
2018-06-11T11:31:24.215Z,33344
2018-06-11T11:32:26.898Z,34656
2018-06-11T11:33:29.195Z,159072
2018-06-11T11:34:31.583Z,33856
2018-06-11T11:35:33.881Z,155264
2018-06-11T11:36:35.887Z,63776
2018-06-11T11:37:38.175Z,98400
2018-06-11T11:38:40.581Z,169600
2018-06-11T11:39:42.597Z,160256
2018-06-11T11:40:44.609Z,40224
2018-06-11T11:41:46.618Z,158368
2018-06-11T11:42:48.636Z,125184
2018-06-11T11:43:50.646Z,131072
2018-06-11T11:44:52.660Z,133120
2018-06-11T11:45:54.670Z,140608
2018-06-11T11:46:56.678Z,150752
2018-06-11T11:47:58.963Z,145856
2018-06-11T11:49:01.258Z,136800
2018-06-11T11:50:03.260Z,140320
2018-06-11T11:51:05.335Z,140000
2018-06-11T11:52:07.577Z,44704
2018-06-11T11:53:09.589Z,31392
2018-06-11T11:54:11.598Z,37088
2018-06-11T11:55:13.607Z,97376
2018-06-11T11:56:15.619Z,136416
2018-06-11T11:57:17.625Z,137152
2018-06-11T11:58:19.938Z,134464
2018-06-11T11:59:22.261Z,129792
2018-06-11T12:00:24.413Z,132224
2018-06-11T12:01:26.809Z,133888
2018-06-11T12:02:29.225Z,127840
2018-06-11T12:03:31.572Z,129888
2018-06-11T12:04:35.923Z,132864
2018-06-11T12:05:40.715Z,142400
2018-06-11T12:06:45.554Z,143296
2018-06-11T12:07:49.806Z,143744
2018-06-11T12:08:54.833Z,47680
2018-06-11T12:09:59.561Z,143456
2018-06-11T12:11:05.349Z,132800
2018-06-11T12:12:09.326Z,30048
2018-06-11T12:13:15.356Z,84640
2018-06-11T12:14:20.779Z,35936
2018-06-11T12:15:24.701Z,42656
2018-06-11T12:16:29.118Z,132512
2018-06-11T12:17:34.160Z,85408
2018-06-11T12:18:37.387Z,120928
2018-06-11T12:19:41.663Z,118624
2018-06-11T12:20:44.776Z,119936
2018-06-11T12:21:49.710Z,90720
2018-06-11T12:22:54.397Z,133120
2018-06-11T12:23:58.190Z,131744
2018-06-11T12:25:02.582Z,130816
2018-06-11T12:26:08.346Z,35712
2018-06-11T12:27:13.243Z,125856
2018-06-11T12:28:16.440Z,138816
2018-06-11T12:29:20.481Z,147776
2018-06-11T12:30:23.221Z,93600
2018-06-11T12:31:27.662Z,29120
2018-06-11T12:32:31.456Z,131936
2018-06-11T12:33:34.041Z,137600
2018-06-11T12:34:37.052Z,84896
2018-06-11T12:35:39.713Z,132832
2018-06-11T12:36:43.807Z,132320
2018-06-11T12:37:48.186Z,135008
2018-06-11T12:38:51.361Z,135392
2018-06-11T12:39:55.427Z,144096
2018-06-11T12:40:59.496Z,131360
2018-06-11T12:42:03.356Z,41536
2018-06-11T12:43:07.798Z,122592
2018-06-11T12:44:12.161Z,51680
2018-06-11T12:45:17.371Z,38208
2018-06-11T12:46:21.240Z,37120
2018-06-11T12:47:24.994Z,29120
2018-06-11T12:48:28.332Z,30592
2018-06-11T12:49:31.330Z,41632
2018-06-11T12:50:37.659Z,136224
2018-06-11T12:51:43.053Z,148160
2018-06-11T12:52:47.593Z,52000
2018-06-11T12:53:53.200Z,37280
2018-06-11T12:54:58.293Z,104864
2018-06-11T12:56:01.041Z,28864
2018-06-11T12:57:04.109Z,128544
2018-06-11T12:58:07.892Z,132256
2018-06-11T12:59:11.655Z,129440
2018-06-11T13:00:16.338Z,120416
2018-06-11T13:01:21.935Z,114208
2018-06-11T13:02:26.251Z,39872
2018-06-11T13:03:32.023Z,35968
2018-06-11T13:04:36.216Z,53152
2018-06-11T13:05:39.912Z,110336
2018-06-11T13:06:43.384Z,103104
2018-06-11T13:07:47.087Z,90176
2018-06-11T13:08:50.655Z,92288
2018-06-11T13:09:54.976Z,83168
2018-06-11T13:10:58.277Z,90528
2018-06-11T13:12:00.338Z,98400
2018-06-11T13:13:02.681Z,110592
2018-06-11T13:14:05.159Z,38432
2018-06-11T13:15:07.161Z,74784
2018-06-11T13:16:09.225Z,91872
2018-06-11T13:17:11.283Z,39680
2018-06-11T13:18:13.339Z,93600
2018-06-11T13:19:15.403Z,83456
2018-06-11T13:20:17.455Z,101888
2018-06-11T13:21:19.870Z,29824
2018-06-11T13:22:21.970Z,90080
2018-06-11T13:23:24.020Z,106496
2018-06-11T13:24:26.084Z,100768
2018-06-11T13:25:28.144Z,96864
2018-06-11T13:26:30.199Z,106048
2018-06-11T13:27:32.267Z,114560
2018-06-11T13:28:34.329Z,103520
2018-06-11T13:29:36.378Z,102240
2018-06-11T13:30:38.453Z,90656
2018-06-11T13:31:40.503Z,60800
2018-06-11T13:32:42.556Z,95648
2018-06-11T13:33:44.610Z,43552
2018-06-11T13:34:47.054Z,85088
2018-06-11T13:35:49.399Z,78656
2018-06-11T13:36:51.458Z,94368
2018-06-11T13:37:53.537Z,98272
2018-06-11T13:38:55.597Z,103200
2018-06-11T13:39:57.708Z,44800
2018-06-11T13:40:59.768Z,113856
2018-06-11T13:42:01.837Z,62240
2018-06-11T13:43:04.327Z,34848
2018-06-11T13:44:06.662Z,91232
2018-06-11T13:45:08.719Z,96544
2018-06-11T13:46:11.614Z,54336
2018-06-11T13:47:13.662Z,39808
2018-06-11T13:48:16.004Z,34688